KLBB

Lubbock Preston Smith International Airport

Lubbock, Texas, USA
METAR KLBB 241953Z 28025G39KT 9SM CLR 14/M15 A2990 RMK AO2 PK WND 30040/1901 SLP108 PTCHY BLDU ALQDS T01391150
Observed Flight Rules
Feb-24 @ 19:53 UTC (20 minutes ago) Visual Flight Rules
Wind Visibility Clouds
280° at 25 knots
 Gusting to 39 knots
9 miles
  • Clear skies
Temperatures Readings
Current 14°C / 57°F
Dewpoint -15°C / 5°F
Humidity 12%
Altimeter 29.9" Hg
Pressure 1010.8 hPa
Elevation 993
METAR KLBB 241953Z 28025G39KT 9SM CLR 14/M15 A2990 RMK AO2 PK WND 30040/1901 SLP108 PTCHY BLDU ALQDS T01391150
Observed Flight Rules
Feb-24 @ 19:53 UTC
(20 minutes ago)
VFR
Wind Visibility
280° at 25 knots
 Gusting to 39 knots
9 miles
Clouds
  • Clear skies
Temperature Dewpoint
14°C / 57°F -15°C / 5°F
Humidity Altimeter Pressure
12% 29.9" Hg 1010.8 hPa